M I D A S
Marine Information and Data Acquisition System
Tripno 1604 of the Zeeleeuw from 2008-09-10 06:20:15 to 2008-09-10 14:14:11
Back to CruiseResearch ActivitiesStationsMapUnderway DataData graphs

EquipmentUnitsComments
TimeDGPSUTC
LatitudeDGPSDM.mWGS84
LongitudeDGPSDM.mWGS84
SpeedMeteo Stationm/sRelative wind speed
DirectionMeteo StationdegRelative wind direction
TemperatureMeteo Stationdeg CelciusAir temperature
PressureMeteo StationPaAtmospheric pressure
HumidityMeteo Station%Relative humidity
Missing or incorrect values are displayed as -999
Metereological data collected by the RV Zeeleeuw from 2008-09-10 06:21:14 to 2008-09-10 12:35:52
Time Latitude Longitude Speed Direction Temperature Pressure Humidity
2008-09-10 06:22 51°13.624 2°56.047 -999 -999 -999 -999 -999
2008-09-10 06:23 51°13.625 2°56.047 -999 -999 -999 -999 -999
2008-09-10 06:24 51°13.625 2°56.047 -999 -999 -999 -999 -999
2008-09-10 06:25 51°13.625 2°56.047 -999 -999 -999 -999 -999
2008-09-10 06:26 51°13.625 2°56.047 -999 -999 -999 -999 -999
2008-09-10 06:27 51°13.625 2°56.047 -999 -999 -999 -999 -999
2008-09-10 06:28 51°13.624 2°56.047 -999 -999 -999 -999 -999
2008-09-10 06:29 51°13.624 2°56.047 -999 -999 -999 -999 -999
2008-09-10 06:30 51°13.624 2°56.047 -999 -999 -999 -999 -999
2008-09-10 06:31 51°13.624 2°56.047 -999 -999 -999 -999 -999
2008-09-10 06:32 51°13.624 2°56.047 -999 -999 -999 -999 -999
2008-09-10 06:33 51°13.624 2°56.048 -999 -999 -999 -999 -999
2008-09-10 06:34 51°13.624 2°56.047 -999 -999 -999 -999 -999
2008-09-10 06:35 51°13.624 2°56.047 -999 -999 -999 -999 -999
2008-09-10 06:36 51°13.623 2°56.047 -999 -999 -999 -999 -999
2008-09-10 06:37 51°13.623 2°56.047 -999 -999 -999 -999 -999
2008-09-10 06:38 51°13.623 2°56.047 -999 -999 -999 -999 -999
2008-09-10 06:39 51°13.623 2°56.048 -999 -999 -999 -999 -999
2008-09-10 06:40 51°13.623 2°56.047 -999 -999 -999 -999 -999
2008-09-10 06:41 51°13.623 2°56.048 -999 -999 -999 -999 -999
2008-09-10 06:42 51°13.623 2°56.048 -999 -999 -999 -999 -999
2008-09-10 06:43 51°13.623 2°56.047 -999 -999 -999 -999 -999
2008-09-10 06:44 51°13.623 2°56.047 -999 -999 -999 -999 -999
2008-09-10 06:45 51°13.623 2°56.047 -999 -999 -999 -999 -999
2008-09-10 06:46 51°13.623 2°56.047 -999 -999 -999 -999 -999
2008-09-10 06:47 51°13.624 2°56.047 -999 -999 -999 -999 -999
2008-09-10 06:48 51°13.624 2°56.047 -999 -999 -999 -999 -999
2008-09-10 06:49 51°13.624 2°56.048 -999 -999 -999 -999 -999
2008-09-10 06:50 51°13.624 2°56.048 -999 -999 -999 -999 -999
2008-09-10 06:51 51°13.624 2°56.048 -999 -999 -999 -999 -999
2008-09-10 06:52 51°13.624 2°56.048 -999 -999 -999 -999 -999
2008-09-10 06:53 51°13.625 2°56.048 -999 -999 -999 -999 -999
2008-09-10 06:54 51°13.624 2°56.048 -999 -999 -999 -999 -999
2008-09-10 06:55 51°13.623 2°56.047 -999 -999 -999 -999 -999
2008-09-10 06:56 51°13.623 2°56.047 -999 -999 -999 -999 -999
2008-09-10 06:57 51°13.623 2°56.047 -999 -999 -999 -999 -999
2008-09-10 06:58 51°13.622 2°56.047 -999 -999 -999 -999 -999
2008-09-10 06:59 51°13.623 2°56.048 -999 -999 -999 -999 -999
2008-09-10 07:00 51°13.623 2°56.048 -999 -999 -999 -999 -999
2008-09-10 07:01 51°13.623 2°56.048 -999 -999 -999 -999 -999
2008-09-10 07:02 51°13.623 2°56.048 -999 -999 -999 -999 -999
2008-09-10 07:03 51°13.624 2°56.048 -999 -999 -999 -999 -999
2008-09-10 07:04 51°13.624 2°56.048 -999 -999 -999 -999 -999
2008-09-10 07:05 51°13.624 2°56.048 -999 -999 -999 -999 -999
2008-09-10 07:06 51°13.624 2°56.047 -999 -999 -999 -999 -999
2008-09-10 07:07 51°13.624 2°56.047 -999 -999 -999 -999 -999
2008-09-10 07:08 51°13.624 2°56.047 -999 -999 -999 -999 -999
2008-09-10 07:09 51°13.624 2°56.047 -999 -999 -999 -999 -999
2008-09-10 07:10 51°13.624 2°56.048 -999 -999 -999 -999 -999
2008-09-10 07:11 51°13.624 2°56.048 -999 -999 -999 -999 -999
2008-09-10 07:12 51°13.623 2°56.048 -999 -999 -999 -999 -999
2008-09-10 07:13 51°13.623 2°56.048 -999 -999 -999 -999 -999
2008-09-10 07:14 51°13.623 2°56.048 -999 -999 -999 -999 -999
2008-09-10 07:15 51°13.623 2°56.048 -999 -999 -999 -999 -999
2008-09-10 07:16 51°13.623 2°56.048 -999 -999 -999 -999 -999
2008-09-10 07:17 51°13.623 2°56.048 -999 -999 -999 -999 -999
2008-09-10 07:18 51°13.623 2°56.048 -999 -999 -999 -999 -999
2008-09-10 07:19 51°13.623 2°56.048 -999 -999 -999 -999 -999
2008-09-10 07:20 51°13.624 2°56.047 -999 -999 -999 -999 -999
2008-09-10 07:21 51°13.625 2°56.045 -999 -999 -999 -999 -999
2008-09-10 07:22 51°13.624 2°56.044 -999 -999 -999 -999 -999
2008-09-10 07:23 51°13.623 2°56.043 -999 -999 -999 -999 -999
2008-09-10 07:24 51°13.622 2°56.041 -999 -999 -999 -999 -999
2008-09-10 07:25 51°13.597 2°56.075 -999 -999 -999 -999 -999
2008-09-10 07:26 51°13.55 2°56.154 -999 -999 -999 -999 -999
2008-09-10 07:27 51°13.549 2°56.245 -999 -999 -999 -999 -999
2008-09-10 07:28 51°13.548 2°56.244 -999 -999 -999 -999 -999
2008-09-10 07:29 51°13.538 2°56.243 -999 -999 -999 -999 -999
2008-09-10 07:30 51°13.541 2°56.25 -999 -999 -999 -999 -999
2008-09-10 07:31 51°13.526 2°56.262 -999 -999 -999 -999 -999
2008-09-10 07:32 51°13.554 2°56.179 -999 -999 -999 -999 -999
2008-09-10 07:33 51°13.586 2°56.063 -999 -999 -999 -999 -999
2008-09-10 07:34 51°13.627 2°55.945 -999 -999 -999 -999 -999
2008-09-10 07:35 51°13.68 2°55.816 -999 -999 -999 -999 -999
2008-09-10 07:36 51°13.771 2°55.664 -999 -999 -999 -999 -999
2008-09-10 07:37 51°13.899 2°55.575 -999 -999 -999 -999 -999
2008-09-10 07:38 51°14.031 2°55.484 -999 -999 -999 -999 -999
2008-09-10 07:39 51°14.159 2°55.383 -999 -999 -999 -999 -999
2008-09-10 07:40 51°14.27 2°55.243 -999 -999 -999 -999 -999
2008-09-10 07:41 51°14.358 2°55.067 -999 -999 -999 -999 -999
2008-09-10 07:42 51°14.444 2°54.891 -999 -999 -999 -999 -999
2008-09-10 07:43 51°14.529 2°54.721 -999 -999 -999 -999 -999
2008-09-10 07:44 51°14.615 2°54.554 -999 -999 -999 -999 -999
2008-09-10 07:45 51°14.695 2°54.38 -999 -999 -999 -999 -999
2008-09-10 07:46 51°14.77 2°54.203 -999 -999 -999 -999 -999
2008-09-10 07:47 51°14.849 2°54.009 -999 -999 -999 -999 -999
2008-09-10 07:48 51°14.941 2°53.78 -999 -999 -999 -999 -999
2008-09-10 07:49 51°14.976 2°53.691 -999 -999 -999 -999 -999
2008-09-10 07:50 51°14.988 2°53.705 -999 -999 -999 -999 -999
2008-09-10 07:51 51°14.999 2°53.653 -999 -999 -999 -999 -999
2008-09-10 07:52 51°15.031 2°53.463 -999 -999 -999 -999 -999
2008-09-10 07:53 51°15.068 2°53.281 -999 -999 -999 -999 -999
2008-09-10 07:54 51°15.107 2°53.254 -999 -999 -999 -999 -999
2008-09-10 07:55 51°15.144 2°53.251 -999 -999 -999 -999 -999
2008-09-10 07:56 51°15.175 2°53.25 -999 -999 -999 -999 -999
2008-09-10 07:57 51°15.207 2°53.174 -999 -999 -999 -999 -999
2008-09-10 07:58 51°15.231 2°53.008 -999 -999 -999 -999 -999
2008-09-10 07:59 51°15.256 2°52.823 -999 -999 -999 -999 -999
2008-09-10 08:00 51°15.282 2°52.636 -999 -999 -999 -999 -999
2008-09-10 08:01 51°15.309 2°52.447 -999 -999 -999 -999 -999
2008-09-10 08:02 51°15.336 2°52.258 6.6 281 17.2 -999 79
2008-09-10 08:03 51°15.354 2°52.078 8.6 280 17.3 101430 97
2008-09-10 08:04 51°15.362 2°51.966 6.9 277 17.3 101430 99
2008-09-10 08:05 51°15.369 2°51.951 5.7 282 17.3 101430 100
2008-09-10 08:06 51°15.377 2°51.948 6.2 276 17.3 101430 100
2008-09-10 08:07 51°15.384 2°51.95 5.9 284 17.4 101440 100
2008-09-10 08:08 51°15.393 2°51.956 5.8 284 17.4 101430 100
2008-09-10 08:09 51°15.393 2°51.931 5.9 279 17.4 101430 100
2008-09-10 08:10 51°15.363 2°51.771 7.9 284 17.5 101420 100
2008-09-10 08:11 51°15.323 2°51.494 11.7 282 17.4 101420 100
2008-09-10 08:12 51°15.317 2°51.203 11.5 282 17.4 101410 100
2008-09-10 08:13 51°15.321 2°50.901 9 277 17.4 101410 100
2008-09-10 08:14 51°15.321 2°50.607 9.9 280 17.4 101410 100
2008-09-10 08:15 51°15.314 2°50.305 10.4 277 17.3 101420 100
2008-09-10 08:16 51°15.31 2°50.013 9 277 17.4 101420 100
2008-09-10 08:17 51°15.313 2°49.715 10 279 17.4 101420 100
2008-09-10 08:18 51°15.315 2°49.411 10.3 282 17.3 101420 98
2008-09-10 08:19 51°15.314 2°49.117 11.3 282 17.3 101410 97
2008-09-10 08:20 51°15.309 2°48.816 11.3 278 17.2 101410 97
2008-09-10 08:21 51°15.304 2°48.524 10 277 17.3 101410 96
2008-09-10 08:22 51°15.305 2°48.22 11.3 284 17.3 101410 94
2008-09-10 08:23 51°15.303 2°47.924 9 276 17.4 101420 94
2008-09-10 08:24 51°15.299 2°47.619 12.7 281 17.3 101420 94
2008-09-10 08:25 51°15.295 2°47.325 11.2 284 17.3 101420 93
2008-09-10 08:26 51°15.288 2°47.023 11.7 284 17.4 101410 92
2008-09-10 08:27 51°15.284 2°46.731 11.2 284 17.4 101420 91
2008-09-10 08:28 51°15.281 2°46.428 8.8 279 17.4 101410 90
2008-09-10 08:29 51°15.275 2°46.135 11.5 283 17.4 101410 90
2008-09-10 08:30 51°15.263 2°45.835 12.1 279 17.4 101420 90
2008-09-10 08:31 51°15.255 2°45.545 10.4 281 17.4 101410 88
2008-09-10 08:32 51°15.257 2°45.249 9.9 279 17.4 101420 89
2008-09-10 08:33 51°15.26 2°44.952 11.4 283 17.5 101420 89
2008-09-10 08:34 51°15.256 2°44.651 11.8 284 17.4 101410 88
2008-09-10 08:35 51°15.257 2°44.36 9.4 282 17.5 101410 89
2008-09-10 08:36 51°15.253 2°44.059 10.8 278 17.5 101420 90
2008-09-10 08:37 51°15.255 2°43.761 8.5 277 17.5 101410 90
2008-09-10 08:38 51°15.25 2°43.462 11 283 17.5 101410 90
2008-09-10 08:39 51°15.241 2°43.17 11.4 279 17.4 101400 90
2008-09-10 08:40 51°15.228 2°42.869 9.3 282 17.4 101400 90
2008-09-10 08:41 51°15.222 2°42.577 9.3 279 17.5 101400 90
2008-09-10 08:42 51°15.208 2°42.276 9.3 279 17.4 101400 89
2008-09-10 08:43 51°15.2 2°41.978 10.3 277 17.5 101400 90
2008-09-10 08:44 51°15.193 2°41.678 10.5 285 17.5 101400 90
2008-09-10 08:45 51°15.182 2°41.384 11 277 17.5 101390 90
2008-09-10 08:46 51°15.17 2°41.086 8.9 282 17.5 101390 90
2008-09-10 08:47 51°15.164 2°40.781 9 285 17.5 101390 90
2008-09-10 08:48 51°15.152 2°40.488 9.4 281 17.5 101400 91
2008-09-10 08:49 51°15.14 2°40.186 9.2 278 17.5 101400 91
2008-09-10 08:50 51°15.13 2°39.893 10.7 280 17.5 101400 90
2008-09-10 08:51 51°15.128 2°39.59 9.2 283 17.5 101400 90
2008-09-10 08:52 51°15.126 2°39.295 8.7 284 17.5 101400 90
2008-09-10 08:53 51°15.121 2°38.99 9.2 279 17.5 101400 90
2008-09-10 08:54 51°15.11 2°38.69 9.6 279 17.5 101400 90
2008-09-10 08:55 51°15.1 2°38.391 9.1 281 17.6 101400 89
2008-09-10 08:56 51°15.089 2°38.09 10.2 279 17.6 101400 89
2008-09-10 08:57 51°15.102 2°37.795 9.3 284 17.6 101400 89
2008-09-10 08:58 51°15.142 2°37.503 7.5 279 17.6 101400 89
2008-09-10 08:59 51°15.183 2°37.212 7.9 277 17.6 101400 89
2008-09-10 09:00 51°15.225 2°36.919 9.8 285 17.6 101400 89
2008-09-10 09:01 51°15.263 2°36.627 10 281 17.6 101400 89
2008-09-10 09:02 51°15.304 2°36.333 10 281 17.6 101400 89
2008-09-10 09:03 51°15.36 2°36.042 8.7 282 17.7 101410 89
2008-09-10 09:04 51°15.416 2°35.752 8 284 17.7 101410 89
2008-09-10 09:05 51°15.47 2°35.462 10.7 283 17.7 101410 89
2008-09-10 09:06 51°15.522 2°35.169 10.1 277 17.7 101410 89
2008-09-10 09:07 51°15.571 2°34.877 8.3 280 17.7 101410 89
2008-09-10 09:08 51°15.614 2°34.583 8.8 280 17.7 101410 89
2008-09-10 09:09 51°15.654 2°34.285 8.5 277 17.7 101410 89
2008-09-10 09:10 51°15.694 2°33.986 8.3 276 17.8 101420 89
2008-09-10 09:11 51°15.737 2°33.687 8.3 279 17.7 101420 89
2008-09-10 09:12 51°15.768 2°33.387 8 283 17.8 101420 89
2008-09-10 09:13 51°15.799 2°33.089 8.5 278 17.7 101410 89
2008-09-10 09:14 51°15.829 2°32.792 8.9 285 17.7 101400 89
2008-09-10 09:15 51°15.855 2°32.496 9.4 281 17.7 101410 89
2008-09-10 09:16 51°15.868 2°32.197 8.5 281 17.7 101400 89
2008-09-10 09:17 51°15.817 2°31.922 11 286 17.8 101400 89
2008-09-10 09:18 51°15.732 2°31.668 11.2 281 17.8 101400 89
2008-09-10 09:19 51°15.625 2°31.439 10.9 284 17.8 101390 89
2008-09-10 09:20 51°15.491 2°31.249 9.6 281 17.9 101390 88
2008-09-10 09:21 51°15.341 2°31.087 9.2 276 17.9 101400 88
2008-09-10 09:22 51°15.19 2°30.928 10.9 279 17.9 101400 88
2008-09-10 09:23 51°15.041 2°30.764 9.2 283 17.8 101400 88
2008-09-10 09:24 51°14.891 2°30.603 10.6 282 17.8 101400 88
2008-09-10 09:25 51°14.768 2°30.462 7.8 284 17.8 101400 88
2008-09-10 09:26 51°14.691 2°30.377 6.5 281 17.9 101400 89
2008-09-10 09:27 51°14.625 2°30.309 6.7 282 17.9 101400 89
2008-09-10 09:28 51°14.562 2°30.247 6.2 278 17.8 101400 89
2008-09-10 09:29 51°14.514 2°30.222 5.5 277 17.8 101410 89
2008-09-10 09:30 51°14.474 2°30.207 5.8 285 17.9 101400 88
2008-09-10 09:31 51°14.427 2°30.192 6.3 277 17.9 101400 88
2008-09-10 09:32 51°14.4 2°30.186 4.3 283 18 101400 88
2008-09-10 09:33 51°14.41 2°30.212 4 283 18 101400 88
2008-09-10 09:34 51°14.417 2°30.231 4.6 279 18.1 101400 88
2008-09-10 09:35 51°14.416 2°30.228 5.1 277 18.1 101400 88
2008-09-10 09:36 51°14.418 2°30.226 4.3 280 18.1 101400 88
2008-09-10 09:37 51°14.419 2°30.225 4 277 18.1 101400 88
2008-09-10 09:38 51°14.419 2°30.225 4 277 18.1 101400 88
2008-09-10 09:39 51°14.419 2°30.227 4.7 276 18.1 101400 88
2008-09-10 09:40 51°14.418 2°30.228 6.4 282 18.1 101390 88
2008-09-10 09:41 51°14.418 2°30.229 5.8 279 18.1 101390 87
2008-09-10 09:42 51°14.419 2°30.225 5.9 283 18.2 101390 86
2008-09-10 09:43 51°14.421 2°30.222 5.7 278 18.2 101390 85
2008-09-10 09:44 51°14.421 2°30.226 5 279 18.3 101390 85
2008-09-10 09:45 51°14.418 2°30.228 7.1 280 18.3 101390 85
2008-09-10 09:46 51°14.417 2°30.229 6.9 280 18.3 101390 86
2008-09-10 09:47 51°14.419 2°30.229 6.9 282 18.3 101390 86
2008-09-10 09:48 51°14.42 2°30.226 6 281 18.3 101390 85
2008-09-10 09:49 51°14.42 2°30.226 5.2 284 18.3 101390 85
2008-09-10 09:50 51°14.42 2°30.226 6.9 283 18.3 101400 86
2008-09-10 09:51 51°14.419 2°30.228 6.6 277 18.4 101390 85
2008-09-10 09:52 51°14.419 2°30.229 5.5 279 18.4 101400 85
2008-09-10 09:53 51°14.418 2°30.229 5.9 277 18.4 101390 85
2008-09-10 09:54 51°14.419 2°30.228 6.6 280 18.4 101390 85
2008-09-10 09:55 51°14.42 2°30.226 6.3 283 18.4 101390 85
2008-09-10 09:56 51°14.42 2°30.225 5.8 280 18.4 101390 84
2008-09-10 09:57 51°14.421 2°30.227 5.8 284 18.5 101380 83
2008-09-10 09:58 51°14.419 2°30.228 4.5 283 18.5 101390 84
2008-09-10 09:59 51°14.417 2°30.231 6.1 279 18.6 101390 83
2008-09-10 10:00 51°14.416 2°30.23 6.3 284 18.6 101390 84
2008-09-10 10:01 51°14.419 2°30.228 7 284 18.6 101380 83
2008-09-10 10:02 51°14.421 2°30.224 5.9 283 18.6 101390 83
2008-09-10 10:03 51°14.421 2°30.222 6.7 279 18.6 101390 83
2008-09-10 10:04 51°14.421 2°30.224 5.3 278 18.6 101390 84
2008-09-10 10:05 51°14.419 2°30.228 6 278 18.7 101390 84
2008-09-10 10:06 51°14.417 2°30.231 5.9 279 18.6 101390 83
2008-09-10 10:07 51°14.416 2°30.231 5.8 280 18.6 101390 83
2008-09-10 10:08 51°14.419 2°30.228 6.5 283 18.6 101390 83
2008-09-10 10:09 51°14.421 2°30.223 5.7 278 18.6 101390 83
2008-09-10 10:10 51°14.422 2°30.222 7.2 284 18.7 101390 83
2008-09-10 10:11 51°14.421 2°30.225 5.4 284 18.7 101390 83
2008-09-10 10:12 51°14.419 2°30.227 6.7 280 18.7 101400 83
2008-09-10 10:13 51°14.418 2°30.229 5.6 281 18.6 101390 83
2008-09-10 10:14 51°14.419 2°30.228 6.9 279 18.6 101390 84
2008-09-10 10:15 51°14.42 2°30.225 6.9 279 18.6 101390 84
2008-09-10 10:16 51°14.421 2°30.223 6.2 285 18.6 101390 84
2008-09-10 10:17 51°14.421 2°30.223 5.5 282 18.6 101390 84
2008-09-10 10:18 51°14.421 2°30.225 6.9 277 18.6 101400 84
2008-09-10 10:19 51°14.42 2°30.226 6.5 280 18.6 101400 84
2008-09-10 10:20 51°14.419 2°30.227 6.5 279 18.6 101400 84
2008-09-10 10:21 51°14.42 2°30.226 5 279 18.6 101400 84
2008-09-10 10:22 51°14.42 2°30.225 5 283 18.5 101400 85
2008-09-10 10:23 51°14.421 2°30.226 6.8 281 18.5 101400 85
2008-09-10 10:24 51°14.419 2°30.226 5.9 279 18.5 101400 85
2008-09-10 10:25 51°14.42 2°30.225 6.3 278 18.5 101400 86
2008-09-10 10:26 51°14.421 2°30.225 5.7 282 18.5 101400 85
2008-09-10 10:27 51°14.421 2°30.223 5 281 18.5 101400 86
2008-09-10 10:28 51°14.421 2°30.224 5.1 284 18.6 101400 86
2008-09-10 10:29 51°14.421 2°30.224 5.6 279 18.6 101400 86
2008-09-10 10:30 51°14.421 2°30.225 5.8 278 18.7 101400 85
2008-09-10 10:31 51°14.421 2°30.225 5.4 280 18.7 101400 85
2008-09-10 10:32 51°14.42 2°30.225 5.3 284 18.7 101400 85
2008-09-10 10:33 51°14.42 2°30.228 5.4 279 18.7 101390 84
2008-09-10 10:34 51°14.419 2°30.226 4.6 279 18.8 101400 84
2008-09-10 10:35 51°14.42 2°30.224 4.8 284 18.8 101400 84
2008-09-10 10:36 51°14.421 2°30.222 5.9 283 18.8 101390 84
2008-09-10 10:37 51°14.421 2°30.222 6.2 280 18.8 101390 83
2008-09-10 10:38 51°14.421 2°30.225 5.1 282 18.8 101400 83
2008-09-10 10:39 51°14.419 2°30.227 6.1 284 18.8 101400 83
2008-09-10 10:40 51°14.419 2°30.227 5.3 280 18.8 101390 83
2008-09-10 10:41 51°14.42 2°30.227 6.2 276 18.8 101400 83
2008-09-10 10:42 51°14.42 2°30.225 5.7 277 18.9 101400 83
2008-09-10 10:43 51°14.42 2°30.225 4.6 278 18.9 101390 83
2008-09-10 10:44 51°14.42 2°30.226 4.7 283 18.9 101390 82
2008-09-10 10:45 51°14.42 2°30.225 5.2 284 18.9 101400 82
2008-09-10 10:46 51°14.42 2°30.225 4.8 285 18.8 101400 83
2008-09-10 10:47 51°14.42 2°30.225 5.6 278 18.9 101390 83
2008-09-10 10:48 51°14.42 2°30.225 5.8 277 18.9 101400 82
2008-09-10 10:49 51°14.42 2°30.225 4.6 285 18.8 101390 82
2008-09-10 10:50 51°14.42 2°30.225 6 281 18.8 101400 83
2008-09-10 10:51 51°14.42 2°30.225 5.6 280 18.7 101400 82
2008-09-10 10:52 51°14.421 2°30.224 5.9 283 18.7 101400 83
2008-09-10 10:53 51°14.42 2°30.224 5.8 279 18.7 101400 83
2008-09-10 10:54 51°14.42 2°30.225 4.3 276 18.7 101400 83
2008-09-10 10:55 51°14.419 2°30.226 4.7 277 18.7 101400 84
2008-09-10 10:56 51°14.419 2°30.227 4.7 279 18.6 101400 84
2008-09-10 10:57 51°14.418 2°30.227 5 283 18.5 101400 84
2008-09-10 10:58 51°14.418 2°30.227 5.3 278 18.4 101400 84
2008-09-10 10:59 51°14.418 2°30.227 5.1 279 18.4 101400 84
2008-09-10 11:00 51°14.419 2°30.227 4.9 280 18.4 101400 84
2008-09-10 11:01 51°14.419 2°30.227 5.5 280 18.4 101400 85
2008-09-10 11:02 51°14.419 2°30.228 4.9 279 18.4 101390 85
2008-09-10 11:03 51°14.419 2°30.228 5.1 285 18.4 101400 85
2008-09-10 11:04 51°14.419 2°30.228 6.7 277 18.4 101390 85
2008-09-10 11:05 51°14.413 2°30.216 6.4 283 18.4 101390 86
2008-09-10 11:06 51°14.403 2°30.199 6.6 278 18.3 101390 86
2008-09-10 11:07 51°14.398 2°30.189 6.7 281 18.3 101380 86
2008-09-10 11:08 51°14.396 2°30.184 6.5 279 18.3 101390 86
2008-09-10 11:09 51°14.398 2°30.154 7.7 283 18.3 101380 86
2008-09-10 11:10 51°14.434 2°30.122 6.7 278 18.3 101380 86
2008-09-10 11:11 51°14.49 2°30.153 3.4 82 18.3 101390 87
2008-09-10 11:12 51°14.539 2°30.226 3.6 78 18.2 101390 86
2008-09-10 11:13 51°14.58 2°30.289 4.2 80 18.1 101390 86
2008-09-10 11:14 51°14.619 2°30.343 5.8 84 18.1 101390 86
2008-09-10 11:15 51°14.657 2°30.393 6.3 78 18.1 101390 85
2008-09-10 11:16 51°14.691 2°30.433 5.2 76 18 101390 84
2008-09-10 11:17 51°14.724 2°30.479 5 81 18.1 101390 85
2008-09-10 11:18 51°14.755 2°30.527 4.2 83 18.1 101390 85
2008-09-10 11:19 51°14.785 2°30.576 5.1 83 18.2 101390 84
2008-09-10 11:20 51°14.815 2°30.624 4.7 81 18.2 101390 84
2008-09-10 11:21 51°14.844 2°30.672 3.8 82 18.1 101390 84
2008-09-10 11:22 51°14.871 2°30.723 3.6 82 18.1 101390 85
2008-09-10 11:23 51°14.896 2°30.775 4.1 76 18.3 101380 85
2008-09-10 11:24 51°14.917 2°30.831 6.7 77 18.3 101380 83
2008-09-10 11:25 51°14.937 2°30.883 4.1 83 18.2 101380 83
2008-09-10 11:26 51°14.962 2°30.933 4.9 82 18.3 101380 84
2008-09-10 11:27 51°14.989 2°30.978 5.7 80 18.2 101380 82
2008-09-10 11:28 51°15.018 2°31.02 7.4 77 18.2 101380 84
2008-09-10 11:29 51°15.05 2°31.057 6.9 81 18.1 101380 84
2008-09-10 11:30 51°15.083 2°31.088 6.1 282 18 101380 84
2008-09-10 11:31 51°15.125 2°31.09 7.7 278 18.1 101380 85
2008-09-10 11:32 51°15.155 2°31.049 7.1 283 18.1 101380 85
2008-09-10 11:33 51°15.153 2°30.996 8.2 280 18.1 101380 85
2008-09-10 11:34 51°15.115 2°30.967 8.6 278 18.1 101370 85
2008-09-10 11:35 51°15.073 2°30.935 10 282 18 101370 86
2008-09-10 11:36 51°15.041 2°30.901 9.6 280 18 101370 87
2008-09-10 11:37 51°15.008 2°30.878 7.4 350 17.9 101370 85
2008-09-10 11:38 51°14.977 2°30.861 7.3 347 18 101380 86
2008-09-10 11:39 51°14.946 2°30.844 8.6 277 17.9 101380 86
2008-09-10 11:40 51°14.918 2°30.824 8.9 278 17.9 101380 86
2008-09-10 11:41 51°14.89 2°30.802 8.9 280 17.9 101380 86
2008-09-10 11:42 51°14.863 2°30.779 8.4 347 17.9 101380 86
2008-09-10 11:43 51°14.838 2°30.757 8.1 282 17.9 101380 86
2008-09-10 11:44 51°14.815 2°30.726 7.5 284 18 101390 86
2008-09-10 11:45 51°14.793 2°30.695 8 282 18 101380 86
2008-09-10 11:46 51°14.767 2°30.667 7.1 277 18 101380 86
2008-09-10 11:47 51°14.74 2°30.642 8.2 278 18 101380 86
2008-09-10 11:48 51°14.711 2°30.617 7.4 285 17.9 101380 87
2008-09-10 11:49 51°14.685 2°30.59 8.6 283 17.9 101380 87
2008-09-10 11:50 51°14.66 2°30.56 8.7 282 17.9 101380 87
2008-09-10 11:51 51°14.634 2°30.528 7.7 281 17.8 101380 88
2008-09-10 11:52 51°14.609 2°30.496 6.7 276 17.9 101390 88
2008-09-10 11:53 51°14.584 2°30.462 8.4 283 17.9 101390 87
2008-09-10 11:54 51°14.558 2°30.429 7.9 347 18 101390 87
2008-09-10 11:55 51°14.531 2°30.396 8.1 285 18 101390 87
2008-09-10 11:56 51°14.505 2°30.362 8.5 282 18 101380 88
2008-09-10 11:57 51°14.478 2°30.327 7.1 282 18 101390 88
2008-09-10 11:58 51°14.451 2°30.292 6.6 283 18 101390 89
2008-09-10 11:59 51°14.421 2°30.263 7.2 349 17.9 101390 89
2008-09-10 12:00 51°14.389 2°30.237 8.5 278 17.9 101390 89
2008-09-10 12:01 51°14.358 2°30.213 6 278 17.8 101390 89
2008-09-10 12:02 51°14.328 2°30.188 7.3 280 17.8 101380 89
2008-09-10 12:03 51°14.298 2°30.161 6.7 346 17.8 101380 89
2008-09-10 12:04 51°14.268 2°30.133 8.5 280 17.8 101380 89
2008-09-10 12:05 51°14.237 2°30.105 6.4 279 17.7 101380 89
2008-09-10 12:06 51°14.207 2°30.076 6.2 282 17.7 101390 89
2008-09-10 12:07 51°14.176 2°30.047 6.9 280 17.8 101390 90
2008-09-10 12:08 51°14.145 2°30.017 7.3 347 17.7 101390 90
2008-09-10 12:09 51°14.116 2°29.984 6.4 278 17.7 101390 90
2008-09-10 12:10 51°14.112 2°29.928 5.7 277 17.8 101390 90
2008-09-10 12:11 51°14.149 2°29.89 6.4 284 18 101390 90
2008-09-10 12:12 51°14.2 2°29.921 3.1 77 18.1 101390 89
2008-09-10 12:13 51°14.247 2°29.99 3.1 82 18.1 101400 88
2008-09-10 12:14 51°14.291 2°30.048 4.2 81 18.2 101390 88
2008-09-10 12:15 51°14.335 2°30.095 4.7 82 18.2 101400 88
2008-09-10 12:16 51°14.38 2°30.134 4.2 78 18.1 101400 87
2008-09-10 12:17 51°14.419 2°30.173 4.1 81 18.1 101410 87
2008-09-10 12:18 51°14.454 2°30.212 4.9 80 18 101400 87
2008-09-10 12:19 51°14.459 2°30.218 5.4 77 18 101400 88
2008-09-10 12:20 51°14.458 2°30.219 5.3 82 18 101410 88
2008-09-10 12:21 51°14.461 2°30.224 5.1 76 18 101410 88
2008-09-10 12:22 51°14.465 2°30.231 5.4 76 18 101410 88
2008-09-10 12:23 51°14.469 2°30.24 6.2 81 18 101410 88
2008-09-10 12:24 51°14.474 2°30.25 4.6 283 18 101410 88
2008-09-10 12:25 51°14.472 2°30.257 4 284 18 101410 88
2008-09-10 12:26 51°14.467 2°30.267 6.7 283 18 101410 88
2008-09-10 12:27 51°14.464 2°30.276 5.4 284 18.1 101410 88
2008-09-10 12:28 51°14.467 2°30.279 5.3 278 18.1 101410 88
2008-09-10 12:29 51°14.472 2°30.277 5.4 281 18.1 101410 88
2008-09-10 12:30 51°14.477 2°30.275 5 282 18.1 101410 88
2008-09-10 12:31 51°14.479 2°30.273 4.1 284 18.2 101410 88
2008-09-10 12:32 51°14.48 2°30.273 3.9 278 18.2 101410 88
2008-09-10 12:33 51°14.48 2°30.275 4.8 278 18.1 101410 88
2008-09-10 12:34 51°14.478 2°30.274 5.5 349 18 101410 89
2008-09-10 12:35 51°14.476 2°30.275 5.3 357 17.9 101410 90